ADDS METAR Data INFO
IDs: Format: Raw Decoded Include TAF

Data at: 0248 UTC 21 Jan 2018

KCHK 210235Z AUTO 14009KT 10SM CLR 13/04 A2976 RMK AO2 T01260045
KCHK 210215Z AUTO 13009KT 10SM CLR 13/04 A2976 RMK AO2 T01300041
KCHK 210155Z AUTO 12008KT 10SM CLR 14/04 A2976 RMK AO2 T01380039
KCHK 210135Z AUTO 13010KT 10SM CLR 15/04 A2976 RMK AO2 T01500038
KCHK 210115Z AUTO 13007KT 10SM CLR 15/03 A2976 RMK AO2 T01460032
KCHK 210055Z AUTO 13007KT 10SM CLR 16/03 A2976 RMK AO2 T01560030
KCHK 210035Z AUTO 13008KT 10SM CLR 17/03 A2976 RMK AO2 T01670032
KCHK 210015Z AUTO 15008KT 10SM CLR 18/03 A2976 RMK AO2 T01760033
KCHK 202355Z AUTO 16008KT 10SM CLR 18/03 A2976 RMK AO2 T01840031 10213 20145 402130093
KCHK 202335Z AUTO 18010KT 10SM CLR 20/03 A2976 RMK AO2 T01970030
KCHK 202315Z AUTO 18010KT 10SM CLR 20/03 A2975 RMK AO2 T02040032
KCHK 202255Z AUTO 18013G17KT 10SM CLR 21/04 A2975 RMK AO2 T02090036
KCHK 202235Z AUTO 18014G19KT 10SM CLR 21/04 A2974 RMK AO2 T02110037
KCHK 202215Z AUTO 18012G20KT 10SM CLR 21/04 A2975 RMK AO2 T02100041
KCHK 202155Z AUTO 18013G18KT 10SM CLR 21/04 A2975 RMK AO2 T02110039
KCHK 202135Z AUTO 19013G19KT 10SM CLR 21/04 A2974 RMK AO2 T02080043
KCHK 202115Z AUTO 18018G23KT 10SM CLR 20/04 A2974 RMK AO2 T02020043
KCHK 202055Z AUTO 18012KT 10SM CLR 20/05 A2975 RMK AO2 T02000046
KCHK 202035Z AUTO 19017G20KT 10SM CLR 19/05 A2975 RMK AO2 T01940049
KCHK 202015Z AUTO 17016KT 10SM CLR 19/05 A2975 RMK AO2 T01900047
KCHK 201955Z AUTO 19016G20KT 10SM CLR 18/05 A2976 RMK AO2 T01850051
KCHK 201935Z AUTO 18019G23KT 10SM CLR 18/06 A2976 RMK AO2 T01800056
KCHK 201915Z AUTO 18015G19KT 10SM CLR 17/06 A2977 RMK AO2 T01700057
KCHK 201855Z AUTO 19017G23KT 10SM CLR 17/06 A2979 RMK AO2 T01660061
KCHK 201835Z AUTO 18015G21KT 10SM CLR 16/06 A2980 RMK AO2 T01610062
KCHK 201815Z AUTO 19015G22KT 10SM CLR 15/06 A2981 RMK AO2 T01530062
KCHK 201755Z AUTO 18017G21KT 10SM CLR 15/07 A2983 RMK AO2 T01490066 10150 20093
KCHK 201735Z AUTO 19013G20KT 10SM CLR 14/07 A2984 RMK AO2 T01410066
KCHK 201715Z AUTO 18016G20KT 10SM CLR 14/07 A2985 RMK AO2 T01350070
KCHK 201655Z AUTO 17019G24KT 10SM CLR 13/07 A2985 RMK AO2 T01300070
KCHK 201635Z AUTO 19016KT 10SM CLR 13/07 A2985 RMK AO2 T01260072
KCHK 201615Z AUTO 19017G25KT 10SM SCT016 12/07 A2986 RMK AO2 T01180073
KCHK 201555Z AUTO 18016KT 10SM BKN014 12/08 A2986 RMK AO2 T01160078
KCHK 201535Z AUTO 18017G23KT 10SM OVC012 11/08 A2986 RMK AO2 T01080078
KCHK 201515Z AUTO 18018G22KT 10SM OVC012 10/08 A2985 RMK AO2 T01040080
KCHK 201455Z AUTO 18016G24KT 10SM OVC012 10/08 A2985 RMK AO2 T01000079
KCHK 201435Z AUTO 18014G24KT 10SM OVC012 10/08 A2984 RMK AO2
KCHK 201415Z AUTO 18013KT 10SM OVC012 09/08 A2984 RMK AO2 T00950078
KCHK 201355Z AUTO 18013KT 10SM OVC012 09/08 A2984 RMK AO2 T00940078
KCHK 201335Z AUTO 18012KT 10SM OVC012 09/08 A2984 RMK AO2 T00940078
KCHK 201315Z AUTO 18015KT 10SM OVC012 09/08 A2983 RMK AO2 T00950078
KCHK 201255Z AUTO 17014KT 10SM OVC012 09/08 A2983 RMK AO2 T00950079
KCHK 201235Z AUTO 16010KT 10SM OVC012 09/08 A2983 RMK AO2 T00940079
KCHK 201215Z AUTO 17009KT 10SM OVC012 10/08 A2983 RMK AO2 T00950079
KCHK 201155Z AUTO 17008KT 140V210 10SM OVC014 10/08 A2984 RMK AO2 T00970079 10106 20095
KCHK 201135Z AUTO 17011G17KT 10SM OVC014 10/08 A2982 RMK AO2 T00980079
KCHK 201115Z AUTO 18013G20KT 10SM OVC014 10/08 A2982 RMK AO2 T00980080
KCHK 201055Z AUTO 18017G24KT 10SM BKN014 10/08 A2982 RMK AO2 T00980080
KCHK 201035Z AUTO 18017G26KT 10SM BKN014 10/08 A2982 RMK AO2 T00990080
KCHK 201015Z AUTO 18017G24KT 10SM BKN014 10/08 A2982 RMK AO2 T00980081
KCHK 200955Z AUTO 18018G24KT 10SM BKN012 10/08 A2983 RMK AO2 T00960081
KCHK 200935Z AUTO 17017G23KT 10SM SCT014 10/08 A2984 RMK AO2 T00960081
KCHK 200915Z AUTO 17013G21KT 10SM CLR 10/08 A2984 RMK AO2 T00990081
KCHK 200855Z AUTO 16015G20KT 10SM SCT014 10/08 A2984 RMK AO2 T01010082
KCHK 200835Z AUTO 16015G24KT 10SM BKN014 10/08 A2985 RMK AO2 T01010082
KCHK 200815Z AUTO 16014G18KT 10SM BKN014 10/08 A2985 RMK AO2 T01020082
KCHK 200755Z AUTO 16013KT 10SM OVC013 10/08 A2986 RMK AO2 T01040083
KCHK 200735Z AUTO 16009KT 10SM OVC011 10/08 A2986 RMK AO2 T01040084
KCHK 200715Z AUTO 17011G19KT 10SM OVC011 10/08 A2987 RMK AO2 T01050085
KCHK 200655Z AUTO 17012KT 10SM OVC011 10/08 A2987 RMK AO2 T01040084
KCHK 200635Z AUTO 16011G21KT 10SM OVC011 10/08 A2988 RMK AO2 T01030082
KCHK 200615Z AUTO 16014G17KT 10SM OVC011 10/08 A2988 RMK AO2 T01040083
KCHK 200555Z AUTO 16016G22KT 10SM OVC011 10/08 A2988 RMK AO2 T01050083 10145 20094
KCHK 200535Z AUTO 16014G21KT 10SM OVC011 10/08 A2989 RMK AO2 T01040082
KCHK 200515Z AUTO 16013G20KT 10SM OVC013 10/08 A2989 RMK AO2 T01050082
KCHK 200455Z AUTO 17015G21KT 10SM OVC013 10/08 A2990 RMK AO2 T01040081
KCHK 200435Z AUTO 17012G18KT 10SM OVC013 10/08 A2990 RMK AO2 T01010079
KCHK 200415Z AUTO 16011G19KT 10SM BKN015 10/07 A2989 RMK AO2 T00980075
KCHK 200355Z AUTO 15014G20KT 10SM CLR 10/07 A2988 RMK AO2 T00970070
KCHK 200335Z AUTO 16011KT 10SM CLR 10/06 A2988 RMK AO2 T00950063
KCHK 200315Z AUTO 15016G20KT 10SM CLR 10/06 A2988 RMK AO2 T00950055
KCHK 200255Z AUTO 15014KT 10SM CLR 10/05 A2988 RMK AO2 T00990049
KCHK 200235Z AUTO 16012KT 10SM CLR 10/05 A2987 RMK AO2 T01050046
KCHK 200215Z AUTO 15015KT 10SM CLR 11/04 A2986 RMK AO2 T01120045
KCHK 200155Z AUTO 16013G18KT 10SM CLR 11/04 A2986 RMK AO2 T01120041
KCHK 200135Z AUTO 15011KT 10SM CLR 11/03 A2985 RMK AO2 T01150027
KCHK 200115Z AUTO 16009KT 10SM CLR 12/01 A2985 RMK AO2 T01210011
KCHK 200055Z AUTO 16009KT 10SM CLR 12/00 A2985 RMK AO2 T01230004
KCHK 200035Z AUTO 16010KT 10SM CLR 13/00 A2985 RMK AO2 T01310002
KCHK 200015Z AUTO 17010KT 10SM CLR 14/00 A2985 RMK AO2 T01370002
KCHK 192355Z AUTO 17012KT 10SM CLR 14/00 A2985 RMK AO2 T01440001 10161 20097 401611027
KCHK 192335Z AUTO 17013KT 10SM CLR 15/00 A2985 RMK AO2 T01511002
KCHK 192315Z AUTO 18015G19KT 10SM CLR 16/M01 A2985 RMK AO2 T01591007
KCHK 192255Z AUTO 17013G20KT 10SM CLR 16/M02 A2985 RMK AO2 T01601018
KCHK 192235Z AUTO 17012G23KT 10SM CLR 16/M02 A2985 RMK AO2 T01601020
KCHK 192215Z AUTO 18014G20KT 10SM CLR 16/M02 A2986 RMK AO2 T01581022
KCHK 192155Z AUTO 18016G20KT 10SM CLR 16/M02 A2986 RMK AO2 T01581024
KCHK 192135Z AUTO 18015G21KT 10SM CLR 15/M03 A2987 RMK AO2 T01551026
KCHK 192115Z AUTO 17016G20KT 10SM CLR 15/M03 A2987 RMK AO2 T01551026
KCHK 192055Z AUTO 20013G19KT 10SM CLR 15/M03 A2988 RMK AO2 T01521030
KCHK 192035Z AUTO 18016G19KT 10SM CLR 15/M03 A2989 RMK AO2 T01511030
KCHK 192015Z AUTO 18014G20KT 10SM CLR 15/M03 A2990 RMK AO2 T01471033
KCHK 191955Z AUTO 18014G19KT 10SM CLR 14/M03 A2991 RMK AO2 T01401034
KCHK 191935Z AUTO 20014KT 10SM CLR 14/M04 A2993 RMK AO2 T01361036
KCHK 191915Z AUTO 21014G19KT 10SM CLR 13/M03 A2994 RMK AO2 T01271035
KCHK 191855Z AUTO 20013G19KT 10SM CLR 12/M04 A2995 RMK AO2 T01181038
KCHK 191835Z AUTO 17013G19KT 10SM CLR 11/M04 A2996 RMK AO2 T01151039
KCHK 191815Z AUTO 19015G18KT 10SM CLR 11/M04 A2997 RMK AO2 T01061041
KCHK 191755Z AUTO 19013KT 10SM CLR 09/M04 A2999 RMK AO2 T00941042 10098 21027
KCHK 191735Z AUTO 20013G20KT 10SM CLR 08/M04 A3001 RMK AO2 T00851045
KCHK 191715Z AUTO 19014KT 10SM CLR 07/M05 A3003 RMK AO2 T00751046
KCHK 191655Z AUTO 19013KT 10SM CLR 07/M05 A3003 RMK AO2 T00661050
KCHK 191635Z AUTO 19013KT 10SM CLR 06/M05 A3004 RMK AO2 T00571051
KCHK 191615Z AUTO 20012KT 10SM CLR 05/M05 A3005 RMK AO2 T00471052
KCHK 191555Z AUTO 20011KT 10SM CLR 03/M05 A3006 RMK AO2 T00321050
KCHK 191535Z AUTO 19010KT 10SM CLR 02/M05 A3006 RMK AO2 T00191049
KCHK 191515Z AUTO 19009KT 10SM CLR 01/M05 A3005 RMK AO2
KCHK 191455Z AUTO 18011KT 10SM CLR 00/M05 A3005 RMK AO2